LiveATC.Net - Listen to live air traffic control over the Internet!

Airport/ARTCC Code
Frequency Search
(e.g., 124.400, 128.75)
Site-wide search
 


Browse Feeds
Top 50 Feeds
HF Oceanic Feeds
Coverage Map
Bad Weather Areas

LiveATC FAQ
Offer LiveATC feed
Contact LiveATC.net
Press Inquiries

LiveATC on iPhone
LiveATC on Android

Windows Phone
Windows 8/10

LiveATC Mobile
(Mobile browser)

ATC Audio Archives
Interesting Recordings

LiveATC Forums

Home Page
About LiveATC.net
Make a Donation
Terms of Use
Privacy Policy

Canadian Air Freqs

AIRMETs/SIGMETs

FAA Airport Status
NAS Status
Arrival Demand


Server Software By:
Icecast.org
Liquidsoap


Current Potentially Bad Weather Airports
(updated every 30 minutes - sorted alphabetically by ICAO code)



This page lists LiveATC.net airport areas that may be interesting to listen to because of challenging flying (weather) conditions. Challenging weather conditions include low ceilings, limited visibility, high or gusty winds, or thunderstorms.

Updated: Sat May 15 04:40:01 UTC 2021
Click on airport name to go to that airport area's feeds.

CYSC AWOS Sherbrooke Airport (Sherbrooke, CA-QC)
WX MAP UNAVAILABLENearest METAR:
CYSC 150428Z AUTO 11002KT 2 1/2SM BR SCT100 SCT250 05/05 A3014 RMK SLP215
ENZV Gnd/Twr/App Stavanger Sola Airport (Stavanger, Norway)
WX MAP UNAVAILABLENearest METAR:
ENZV 150420Z 00000KT 0200 FG VV001 11/11 Q0999
ESMS Tower Malmo Airport (Svedala, Sweden)
WX MAP UNAVAILABLENearest METAR:
ESMS 150420Z 24010KT 1000 R17/P2000N R35/P2000D BR OVC002 09/09 Q1002 REDZ
ESOE Tower/Control Orebro Airport (Orebro, Sweden)
WX MAP UNAVAILABLENearest METAR:
ESOE 150420Z AUTO 05005KT 7000 BKN005/// OVC008/// 09/07 Q1002
ESOW Twr/CTAF/Control Stockholm Vasteras Airport (Stockholm, Sweden)
WX MAP UNAVAILABLENearest METAR:
ESOW 150420Z AUTO 03007KT 5000 BR OVC003/// 07/06 Q1003 REDZ
EVRA Tower/Guard Riga International Airport (Riga, Latvia)
WX MAP UNAVAILABLENearest METAR:
EVRA 150420Z 22003KT 180V270 1000 0700 R18/P2000N BR SCT001 OVC004 11/11 Q1004 NOSIG
FMEP Info Pierrefonds Airport (Saint-Pierre, Reunion)
WX MAP UNAVAILABLENearest METAR:
FMEP 150400Z AUTO 06005KT 030V110 CAVOK 24/15 Q1019 BECMG 12023G33KT
KAAO CTAF/KBEC Twr Colonel James Jabara Airport (Wichita, US-KS)
kbecNearest METAR:
KBEC 150415Z AUTO 13009KT 10SM BKN065 OVC110 16/13 A3007 RMK AO2 LTG DSNT NE T01550127
KCFO/KEIK/KBDU/KLMO/Misc Vance Brand Airport (Longmont, US-CO)
kcfoNearest METAR:
KCFO 150415Z AUTO 05008KT 10SM CLR 13/09 A3013 RMK AO2 LTG DSNT NE T01260091
KELP Gnd/Twr/App/Dep El Paso International Airport (El Paso, US-TX)
WX MAP UNAVAILABLENearest METAR:
KELP 150351Z 33014KT 10SM BKN100 BKN150 22/14 A2999 RMK AO2 SLP090 OCNL LTGICCCCG DSNT SW CB DSNT SW T02170139 $
KGFK Approach Grand Forks International Airport (Grand Forks, US-ND)
kgfkNearest METAR:
KGFK 150353Z VRB05KT 10SM FEW070 FEW095 BKN130 BKN220 12/09 A3001 RMK AO2 LTG DSNT S RAE46 SLP164 P0004 T01220089
KHUT Ground/Twr Hutchinson Municipal Airport (Hutchinson, US-KS)
khutNearest METAR:
KHUT 150417Z AUTO 16012G20KT 10SM -TSRA FEW050 BKN080 OVC110 18/12 A3006 RMK AO2 LTG DSNT NW RAB13 TSB17 P0000 T01830117
KHWD Ground/Tower Hayward Executive Airport (Hayward, US-CA)
khwdNearest METAR:
KHWD 150404Z 27013KT 10SM OVC009 12/09 A2994 RMK AO2 CIG 008V012 T01170089
KHYS CTAF Hays Regional Airport (Hays, US-KS)
khysNearest METAR:
KHYS 150356Z AUTO 17027G36KT 10SM -RA OVC100 16/15 A2997 RMK AO2 PK WND 17039/0343 LTG DSNT ALQDS TSE37 SLP140 P0003 T01610150
KLBB Gnd/Twr/App Lubbock Preston Smith International Airport (Lubbock, US-TX)
klbbNearest METAR:
KLBB 150403Z 08009G20KT 10SM FEW049 SCT110 BKN260 21/12 A3009 RMK AO2 OCNL LTGIC DSNT NE AND NW CB DSNT NE AND NW MOV E T02110117
NORCAL Departure (KSFO/KOAK) Metropolitan Oakland International Airport (Oakland, US-CA)
ksfoNearest METAR:
KSFO 150356Z 27017G29KT 9SM FEW003 OVC008 12/08 A2990 RMK AO2 PK WND 27034/0305 SLP126 T01220083
KOFF Gnd/Twr/App/ZMP Offutt Air Force Base (Omaha, US-NE)
koffNearest METAR:
KOFF 150401Z 15001KT 10SM OVC110 17/14 A3007 RMK AO2A SLP179 ALSTG/SLP ESTMD WND DATA ESTMD RVRNO $
KOTH ATIS/AWOS Southwest Oregon Regional Airport (North Bend, US-OR)
kothNearest METAR:
KOTH 150356Z AUTO 36014G22KT 7SM OVC005 10/09 A3013 RMK AO2 SLP202 T01000089
KSLN Ground/Tower Salina Regional Airport (Salina, US-KS)
kslnNearest METAR:
KSLN 150353Z 14013KT 10SM FEW047 SCT110 16/13 A3001 RMK AO2 LTG DSNT E RAB36E45 SLP154 P0000 T01610133
KSUU Del/Gnd/Twr/App/Misc Travis Air Force Base (Fairfield, US-CA)
ksuuNearest METAR:
KSUU 150358Z AUTO 23028G35KT 10SM CLR 14/08 A2977 RMK AO2 PK WND 24035/54 SLP088 T01420079 $
Bordeaux Control Angouleme Airport (Angouleme, France)
WX MAP UNAVAILABLENearest METAR:
LFBU 150400Z AUTO 17008KT 130V200 9999 -RA OVC006 10/09 Q1009
LZPP Ground/Tower Piestany Airport (Piestany, Slovakia)
WX MAP UNAVAILABLENearest METAR:
LZPP 150400Z 36005KT 330V030 0200 R01/0400N FG OVC002 08/07 Q1010
MMTC Twr/App/Center Torreon International Airport (Torreon, Mexico)
WX MAP UNAVAILABLENearest METAR:
MMTC 150340Z 04014KT 10SM SCT040CB 28/13 A2999 RMK 8/300 CB / LTGIC S SE
PASC CTAF/Unicom/AFIS/App Deadhorse Airport (Deadhorse, US-AK)
WX MAP UNAVAILABLENearest METAR:
PASC 150353Z 10005KT 10SM OVC007 M03/M06 A3001 RMK AO2 SLP164 T10331056
SBTE Twr/App Teresina-Senador Petronio Portella Airport (Teresina, Brazil)
WX MAP UNAVAILABLENearest METAR:
SBTE 150400Z 03003KT 9999 -RA FEW030 OVC070 23/23 Q1012 RETSRA
SEQM Gnd/Twr/App Mariscal Sucre International Airport (Quito, Ecuador)
WX MAP UNAVAILABLENearest METAR:
SEQM 150416Z 04004KT 3000 BR OVC003 13/13 Q1027 BECMG AT0430 1000 RMK A3033
URSS Gnd/Twr/App Sochi International Airport (Sochi, Russia)
WX MAP UNAVAILABLENearest METAR:
URSS 150400Z 09001MPS 9999 OVC006 16/15 Q1013 WS ALL RWY R06/010070 R02/////// NOSIG RMK R02/05001MPS QBB180 MT OBSC QFE759